Time;durP1;ratioP1;P1;durP2;ratioP2;P2;SDS_P1;SDS_P2;PMS_P1;PMS_P2;Temp;Humidity;BMP_temperature;BMP_pressure;BME280_temperature;BME280_humidity;BME280_pressure;Samples;Min_cycle;Max_cycle;Signal;HPM_P1;HPM_P2
2021/10/30 00:00:21;;;;;;;1.4;1.2;;;;;;;;;;;;;
2021/10/30 00:02:44;;;;;;;2.2;1.2;;;;;;;;;;;;;
2021/10/30 00:05:10;;;;;;;1.6;1.2;;;;;;;;;;;;;
2021/10/30 00:07:35;;;;;;;5.5;1.9;;;;;;;;;;;;;
2021/10/30 00:10:01;;;;;;;1.3;1.1;;;;;;;;;;;;;
2021/10/30 00:12:26;;;;;;;2.7;1.4;;;;;;;;;;;;;
2021/10/30 00:15:13;;;;;;;1.7;1.3;;;;;;;;;;;;;
2021/10/30 00:17:26;;;;;;;3.5;1.2;;;;;;;;;;;;;
2021/10/30 00:19:51;;;;;;;2.2;1.4;;;;;;;;;;;;;
2021/10/30 00:22:16;;;;;;;3.6;1.4;;;;;;;;;;;;;
2021/10/30 00:24:41;;;;;;;2;1.5;;;;;;;;;;;;;
2021/10/30 00:27:08;;;;;;;1.4;1.3;;;;;;;;;;;;;
2021/10/30 00:29:32;;;;;;;2.3;1.3;;;;;;;;;;;;;
2021/10/30 00:31:56;;;;;;;1.9;1.3;;;;;;;;;;;;;
2021/10/30 00:34:22;;;;;;;2.9;1.7;;;;;;;;;;;;;
2021/10/30 00:36:47;;;;;;;2.4;1.4;;;;;;;;;;;;;
2021/10/30 00:39:12;;;;;;;2;1.3;;;;;;;;;;;;;
2021/10/30 00:41:37;;;;;;;2.4;1.5;;;;;;;;;;;;;
2021/10/30 00:44:03;;;;;;;3.6;1.8;;;;;;;;;;;;;
2021/10/30 00:46:28;;;;;;;1.7;1.4;;;;;;;;;;;;;
2021/10/30 00:48:53;;;;;;;1.8;1.4;;;;;;;;;;;;;
2021/10/30 00:51:19;;;;;;;1.9;1.3;;;;;;;;;;;;;
2021/10/30 00:53:43;;;;;;;1;0.9;;;;;;;;;;;;;
2021/10/30 00:56:08;;;;;;;1.9;1.1;;;;;;;;;;;;;
2021/10/30 00:58:34;;;;;;;1.4;1.1;;;;;;;;;;;;;
2021/10/30 01:00:59;;;;;;;2.2;1.7;;;;;;;;;;;;;
2021/10/30 01:03:24;;;;;;;2.1;1.7;;;;;;;;;;;;;
2021/10/30 01:05:49;;;;;;;1.8;1.4;;;;;;;;;;;;;
2021/10/30 01:08:14;;;;;;;2.5;1.4;;;;;;;;;;;;;
2021/10/30 01:10:39;;;;;;;2;1.2;;;;;;;;;;;;;
2021/10/30 01:13:04;;;;;;;1.2;1.1;;;;;;;;;;;;;
2021/10/30 01:15:29;;;;;;;3.2;1.2;;;;;;;;;;;;;
2021/10/30 01:17:54;;;;;;;3.1;1.6;;;;;;;;;;;;;
2021/10/30 01:20:20;;;;;;;2.4;1.3;;;;;;;;;;;;;
2021/10/30 01:22:45;;;;;;;2.7;1.5;;;;;;;;;;;;;
2021/10/30 01:25:10;;;;;;;2.8;1.3;;;;;;;;;;;;;
2021/10/30 01:27:35;;;;;;;2.1;1.6;;;;;;;;;;;;;
2021/10/30 01:30:00;;;;;;;2.1;1.5;;;;;;;;;;;;;
2021/10/30 01:32:27;;;;;;;2.9;1.7;;;;;;;;;;;;;
2021/10/30 01:34:50;;;;;;;2.7;1.6;;;;;;;;;;;;;
2021/10/30 01:37:17;;;;;;;2.7;1.3;;;;;;;;;;;;;
2021/10/30 01:39:42;;;;;;;3;1.3;;;;;;;;;;;;;
2021/10/30 01:42:07;;;;;;;1.5;1.3;;;;;;;;;;;;;
2021/10/30 01:44:32;;;;;;;2.4;1.5;;;;;;;;;;;;;
2021/10/30 01:46:57;;;;;;;1.6;1;;;;;;;;;;;;;
2021/10/30 01:49:22;;;;;;;2.8;1.3;;;;;;;;;;;;;
2021/10/30 01:51:47;;;;;;;4.1;1.5;;;;;;;;;;;;;
2021/10/30 01:54:12;;;;;;;2.2;1.2;;;;;;;;;;;;;
2021/10/30 01:56:37;;;;;;;2;1.5;;;;;;;;;;;;;
2021/10/30 01:59:02;;;;;;;1.6;1.2;;;;;;;;;;;;;
2021/10/30 02:01:27;;;;;;;3.5;1.4;;;;;;;;;;;;;
2021/10/30 02:03:53;;;;;;;1.8;1.4;;;;;;;;;;;;;
2021/10/30 02:06:18;;;;;;;1.4;1.2;;;;;;;;;;;;;
2021/10/30 02:08:44;;;;;;;5.8;1.4;;;;;;;;;;;;;
2021/10/30 02:11:09;;;;;;;1.3;1.2;;;;;;;;;;;;;
2021/10/30 02:13:34;;;;;;;1.7;1.2;;;;;;;;;;;;;
2021/10/30 02:16:01;;;;;;;2.2;1.4;;;;;;;;;;;;;
2021/10/30 02:18:25;;;;;;;2.2;1.5;;;;;;;;;;;;;
2021/10/30 02:20:50;;;;;;;3.1;1.4;;;;;;;;;;;;;
2021/10/30 02:23:15;;;;;;;2;1.4;;;;;;;;;;;;;
2021/10/30 02:25:41;;;;;;;2.9;1.3;;;;;;;;;;;;;
2021/10/30 02:28:06;;;;;;;2.2;1.6;;;;;;;;;;;;;
2021/10/30 02:30:33;;;;;;;2;1.3;;;;;;;;;;;;;
2021/10/30 02:33:00;;;;;;;2.4;1.1;;;;;;;;;;;;;
2021/10/30 02:35:24;;;;;;;3.7;1.4;;;;;;;;;;;;;
2021/10/30 02:37:49;;;;;;;1.6;1.2;;;;;;;;;;;;;
2021/10/30 02:40:16;;;;;;;2.9;1.4;;;;;;;;;;;;;
2021/10/30 02:42:41;;;;;;;2.1;1.4;;;;;;;;;;;;;
2021/10/30 02:45:06;;;;;;;2.4;1.3;;;;;;;;;;;;;
2021/10/30 02:47:31;;;;;;;2.9;1.4;;;;;;;;;;;;;
2021/10/30 02:49:57;;;;;;;3.2;1.3;;;;;;;;;;;;;
2021/10/30 02:52:22;;;;;;;2.4;1.2;;;;;;;;;;;;;
2021/10/30 02:54:47;;;;;;;2.6;1.3;;;;;;;;;;;;;
2021/10/30 02:57:12;;;;;;;2.2;1.6;;;;;;;;;;;;;
2021/10/30 02:59:37;;;;;;;1.8;1.6;;;;;;;;;;;;;
2021/10/30 03:02:03;;;;;;;2.2;1.6;;;;;;;;;;;;;
2021/10/30 03:04:28;;;;;;;3.1;1.8;;;;;;;;;;;;;
2021/10/30 03:06:55;;;;;;;2.6;1.4;;;;;;;;;;;;;
2021/10/30 03:09:20;;;;;;;3.5;1.9;;;;;;;;;;;;;
2021/10/30 03:11:46;;;;;;;4.6;1.8;;;;;;;;;;;;;
2021/10/30 03:14:11;;;;;;;2;1.5;;;;;;;;;;;;;
2021/10/30 03:16:36;;;;;;;3.9;1.4;;;;;;;;;;;;;
2021/10/30 03:19:01;;;;;;;2.9;1.6;;;;;;;;;;;;;
2021/10/30 03:21:26;;;;;;;2.7;1.7;;;;;;;;;;;;;
2021/10/30 03:23:51;;;;;;;1.9;1.5;;;;;;;;;;;;;
2021/10/30 03:26:17;;;;;;;2;1.3;;;;;;;;;;;;;
2021/10/30 03:28:42;;;;;;;4.3;1.5;;;;;;;;;;;;;
2021/10/30 03:31:07;;;;;;;2;1.3;;;;;;;;;;;;;
2021/10/30 03:33:32;;;;;;;3.5;2.1;;;;;;;;;;;;;
2021/10/30 03:35:57;;;;;;;2.5;2.3;;;;;;;;;;;;;
2021/10/30 03:38:22;;;;;;;3.1;1.7;;;;;;;;;;;;;
2021/10/30 03:40:48;;;;;;;4.3;2.3;;;;;;;;;;;;;
2021/10/30 03:43:13;;;;;;;2.9;1.8;;;;;;;;;;;;;
2021/10/30 03:45:38;;;;;;;4.1;1.9;;;;;;;;;;;;;
2021/10/30 03:48:04;;;;;;;2.7;1.7;;;;;;;;;;;;;
2021/10/30 03:50:28;;;;;;;2;1.6;;;;;;;;;;;;;
2021/10/30 03:52:53;;;;;;;3.4;1.7;;;;;;;;;;;;;
2021/10/30 03:55:19;;;;;;;4;2;;;;;;;;;;;;;
2021/10/30 03:57:44;;;;;;;3;1.8;;;;;;;;;;;;;
2021/10/30 04:02:31;;;;;;;6;3.7;;;;;;;4.59;77.82227;932.4659;;;;
2021/10/30 04:04:56;;;;;;;4;2.4;;;;;;;4.66;77.48633;932.3992;;;;
2021/10/30 04:07:23;;;;;;;2.2;1.9;;;;;;;4.78;77.21289;932.3062;;;;
2021/10/30 04:09:48;;;;;;;3.2;1.8;;;;;;;4.81;76.8252;932.2622;;;;
2021/10/30 04:12:15;;;;;;;1.7;1.5;;;;;;;4.85;75.9209;932.2908;;;;
2021/10/30 04:14:40;;;;;;;6.4;2;;;;;;;4.78;76.18848;932.2211;;;;
2021/10/30 04:17:07;;;;;;;3.6;2.2;;;;;;;4.64;76.53711;932.1795;;;;
2021/10/30 04:19:32;;;;;;;2.4;1.8;;;;;;;4.72;76.26855;932.1323;;;;
2021/10/30 04:21:59;;;;;;;4.2;1.6;;;;;;;4.77;76.01953;932.0284;;;;
2021/10/30 04:24:24;;;;;;;5.8;3.2;;;;;;;4.75;77.15332;931.9396;;;;
2021/10/30 04:26:53;;;;;;;5.9;2.3;;;;;;;4.67;75.5498;931.9615;;;;
2021/10/30 04:29:18;;;;;;;4.5;3;;;;;;;4.6;75.25684;931.9228;;;;
2021/10/30 04:31:44;;;;;;;7.4;4.1;;;;;;;4.68;75.47168;932.0447;;;;
2021/10/30 04:34:17;;;;;;;5.1;3.6;;;;;;;4.68;75.06641;932.077;;;;
2021/10/30 04:36:35;;;;;;;6.8;2.5;;;;;;;4.57;75.33105;931.9601;;;;
2021/10/30 04:38:59;;;;;;;5.1;1.9;;;;;;;4.77;73.01172;931.9322;;;;
2021/10/30 04:41:24;;;;;;;3.6;1.7;;;;;;;4.91;71.55859;931.8903;;;;
2021/10/30 04:43:49;;;;;;;2;1.2;;;;;;;5;70.12109;931.9017;;;;
2021/10/30 04:46:15;;;;;;;4.7;2.8;;;;;;;5.15;72.27539;931.803;;;;
2021/10/30 04:48:40;;;;;;;2.9;2.2;;;;;;;5.1;72.74023;931.9363;;;;
2021/10/30 04:51:06;;;;;;;1.6;1.3;;;;;;;5.09;71.05859;931.899;;;;
2021/10/30 04:53:31;;;;;;;1.1;1;;;;;;;5.21;69.58984;931.7389;;;;
2021/10/30 04:55:56;;;;;;;2;1.6;;;;;;;5.33;70.27539;931.8273;;;;
2021/10/30 04:58:21;;;;;;;7;2.4;;;;;;;5.37;70.70898;931.7828;;;;
2021/10/30 05:00:46;;;;;;;4.1;1.9;;;;;;;5.23;71.43262;931.7244;;;;
2021/10/30 05:03:11;;;;;;;2.2;1.3;;;;;;;5.24;70.54102;931.6827;;;;
2021/10/30 05:05:37;;;;;;;2.4;1.7;;;;;;;5.16;70.47266;931.5231;;;;
2021/10/30 05:08:02;;;;;;;4.3;1.6;;;;;;;5.12;70.73633;931.5262;;;;
2021/10/30 05:10:28;;;;;;;3;1.4;;;;;;;5.08;70.82031;931.483;;;;
2021/10/30 05:12:54;;;;;;;1.7;1.3;;;;;;;4.99;70.84863;931.544;;;;
2021/10/30 05:15:21;;;;;;;1.8;1.2;;;;;;;5.01;70.96777;931.4825;;;;
2021/10/30 05:17:46;;;;;;;1.8;1.3;;;;;;;5.02;71.32813;931.4606;;;;
2021/10/30 05:20:12;;;;;;;1.3;1.1;;;;;;;5.1;71.7041;931.5078;;;;
2021/10/30 05:22:37;;;;;;;1.4;1.3;;;;;;;5.15;71.0127;931.4417;;;;
2021/10/30 05:25:02;;;;;;;4.2;1.6;;;;;;;5.09;71.36328;931.4461;;;;
2021/10/30 05:27:27;;;;;;;1.8;1.4;;;;;;;4.85;71.4707;931.3167;;;;
2021/10/30 05:29:52;;;;;;;4;1.6;;;;;;;4.78;72.23438;931.2605;;;;
2021/10/30 05:32:17;;;;;;;5.3;2.2;;;;;;;4.81;72.4668;931.3482;;;;
2021/10/30 05:34:43;;;;;;;4.8;2.4;;;;;;;4.84;72.22363;931.247;;;;
2021/10/30 05:37:09;;;;;;;7.2;3;;;;;;;4.73;73.02637;931.2344;;;;
2021/10/30 05:39:36;;;;;;;4.3;2.3;;;;;;;4.74;73.06348;931.1944;;;;
2021/10/30 05:42:00;;;;;;;4.3;2.2;;;;;;;4.77;72.42578;931.1262;;;;
2021/10/30 05:44:27;;;;;;;4.1;2.1;;;;;;;4.81;71.00098;931.1297;;;;
2021/10/30 05:46:52;;;;;;;4.5;2.2;;;;;;;4.82;71.19336;931.1733;;;;
2021/10/30 05:49:18;;;;;;;4.3;2.4;;;;;;;4.85;70.60254;931.1525;;;;
2021/10/30 05:51:42;;;;;;;5.4;2.3;;;;;;;4.93;70.56934;931.1588;;;;
2021/10/30 05:54:07;;;;;;;3.1;2.2;;;;;;;5.09;71.35156;931.1802;;;;
2021/10/30 05:56:33;;;;;;;7.4;3.1;;;;;;;5.28;70.08594;931.1238;;;;
2021/10/30 05:58:59;;;;;;;5.9;3;;;;;;;5.26;70.72656;931.0848;;;;
2021/10/30 06:01:26;;;;;;;5.1;3;;;;;;;5.18;70.95117;931.1005;;;;
2021/10/30 06:03:51;;;;;;;4.8;2.9;;;;;;;5.16;72.17578;931.1547;;;;
2021/10/30 06:06:16;;;;;;;7;3.4;;;;;;;5.11;71.47852;931.0645;;;;
2021/10/30 06:08:41;;;;;;;7.5;4.1;;;;;;;4.93;71.4375;931.0436;;;;
2021/10/30 06:11:08;;;;;;;9.1;3.3;;;;;;;5.04;71.625;931.0719;;;;
2021/10/30 06:13:33;;;;;;;6.5;3.4;;;;;;;5.1;70.27051;931.0556;;;;
2021/10/30 06:15:58;;;;;;;9.5;4.1;;;;;;;5.18;71.01758;931.1367;;;;
2021/10/30 06:18:23;;;;;;;9.2;4.8;;;;;;;5.09;71.6543;931.1635;;;;
2021/10/30 06:20:48;;;;;;;9.6;4.9;;;;;;;5.1;71.92871;931.0391;;;;
2021/10/30 06:23:16;;;;;;;3.4;2.6;;;;;;;4.83;72.29004;931.1167;;;;
2021/10/30 06:25:41;;;;;;;10.3;3.4;;;;;;;4.93;72.39551;931.0869;;;;
2021/10/30 06:28:05;;;;;;;7.4;4.6;;;;;;;4.84;72.78711;930.9766;;;;
2021/10/30 06:30:31;;;;;;;6.6;3.5;;;;;;;4.92;71.93164;931.0867;;;;
2021/10/30 06:32:56;;;;;;;6.8;3.5;;;;;;;5.04;71.53418;931.0126;;;;
2021/10/30 06:35:21;;;;;;;7.6;3.3;;;;;;;5.19;71.33496;931.0187;;;;
2021/10/30 06:37:46;;;;;;;8.7;3.6;;;;;;;5.21;70.91992;930.897;;;;
2021/10/30 06:40:15;;;;;;;5.6;3.5;;;;;;;5.35;70.77539;930.9057;;;;
2021/10/30 06:42:39;;;;;;;6.1;3.3;;;;;;;5.64;69.93164;930.8233;;;;
2021/10/30 06:45:06;;;;;;;11.8;3.4;;;;;;;5.77;68.65332;930.849;;;;
2021/10/30 06:47:31;;;;;;;8.1;3.6;;;;;;;6;67.92285;930.838;;;;
2021/10/30 06:49:58;;;;;;;6.5;3.1;;;;;;;6.22;67.5625;930.8456;;;;
2021/10/30 06:52:22;;;;;;;4.1;3.1;;;;;;;6.17;68.01758;930.8801;;;;
2021/10/30 06:54:48;;;;;;;6.8;3.8;;;;;;;6.24;67.76758;930.8016;;;;
2021/10/30 06:57:14;;;;;;;7.5;4;;;;;;;6.43;67.15332;930.9189;;;;
2021/10/30 06:59:40;;;;;;;5.9;3.4;;;;;;;6.65;65.71777;930.8586;;;;
2021/10/30 07:02:05;;;;;;;7.5;3.5;;;;;;;6.88;65.44629;930.8117;;;;
2021/10/30 07:04:31;;;;;;;7.1;3.7;;;;;;;7.15;63.8584;930.894;;;;
2021/10/30 07:06:56;;;;;;;3.7;3;;;;;;;7.27;62.43652;930.806;;;;
2021/10/30 07:09:22;;;;;;;11.5;5.2;;;;;;;7.54;63.05273;930.8538;;;;
2021/10/30 07:11:47;;;;;;;6.3;3.9;;;;;;;7.54;61.55566;930.8602;;;;
2021/10/30 07:14:13;;;;;;;8.4;3.5;;;;;;;7.87;61.64941;930.8603;;;;
2021/10/30 07:16:38;;;;;;;6.2;3.7;;;;;;;8.16;60.21582;930.7626;;;;
2021/10/30 07:19:05;;;;;;;7;3.1;;;;;;;8.42;59.92188;930.6373;;;;
2021/10/30 07:21:30;;;;;;;7.8;3.3;;;;;;;8.79;59.09668;930.7177;;;;
2021/10/30 07:23:59;;;;;;;9.1;3.2;;;;;;;9.01;58.3877;930.6512;;;;
2021/10/30 07:26:20;;;;;;;9.9;4;;;;;;;9.24;58.86328;930.6794;;;;
2021/10/30 07:28:45;;;;;;;7.6;3.5;;;;;;;9.13;54.50195;930.5438;;;;
2021/10/30 07:31:11;;;;;;;4.9;3;;;;;;;9.25;54.50586;930.6008;;;;
2021/10/30 07:33:36;;;;;;;8.3;3.3;;;;;;;9.23;55.38965;930.6015;;;;
2021/10/30 07:36:03;;;;;;;5.9;3.1;;;;;;;9.36;55.32715;930.6057;;;;
2021/10/30 07:38:27;;;;;;;6.5;2.6;;;;;;;9.35;54.5957;930.4579;;;;
2021/10/30 07:40:54;;;;;;;7;2.7;;;;;;;9.39;55.02344;930.3904;;;;
2021/10/30 07:43:19;;;;;;;5.9;2.7;;;;;;;9.42;54.16211;930.3844;;;;
2021/10/30 07:45:45;;;;;;;4.7;2.4;;;;;;;9.58;53.56641;930.3018;;;;
2021/10/30 07:48:10;;;;;;;4;2;;;;;;;9.77;52.50684;930.3013;;;;
2021/10/30 07:50:36;;;;;;;5.5;2.5;;;;;;;10.03;52.25488;930.2133;;;;
2021/10/30 07:53:01;;;;;;;3.7;1.9;;;;;;;10.38;51.24609;930.1844;;;;
2021/10/30 07:55:28;;;;;;;9.9;2.7;;;;;;;10.6;50.90625;930.2205;;;;
2021/10/30 07:57:53;;;;;;;6.4;1.9;;;;;;;10.9;49.22852;930.1353;;;;
2021/10/30 08:00:22;;;;;;;5.1;2.1;;;;;;;11.37;47.78223;930.0694;;;;
2021/10/30 08:02:48;;;;;;;5.9;2.2;;;;;;;11.77;46.46484;930.0955;;;;
2021/10/30 08:05:15;;;;;;;5.9;2.4;;;;;;;12.45;45.80371;929.9938;;;;
2021/10/30 08:07:40;;;;;;;7.2;2.3;;;;;;;13.19;45.33008;929.8936;;;;
2021/10/30 08:10:07;;;;;;;3.5;1.7;;;;;;;13.77;40.8125;929.7849;;;;
2021/10/30 08:12:32;;;;;;;3.7;1.7;;;;;;;13.94;40.0459;929.7911;;;;
2021/10/30 08:14:59;;;;;;;3.3;1.6;;;;;;;14.36;39.63477;929.7249;;;;
2021/10/30 08:17:24;;;;;;;3.7;1.8;;;;;;;13.77;39.68555;929.7408;;;;
2021/10/30 08:19:49;;;;;;;4.5;2.4;;;;;;;13.58;41.81738;929.7189;;;;
2021/10/30 08:22:14;;;;;;;3.6;2.1;;;;;;;14.17;44.18945;929.5895;;;;
2021/10/30 08:24:41;;;;;;;2.2;0.9;;;;;;;14.09;40.50977;929.5477;;;;
2021/10/30 08:27:06;;;;;;;10.2;2.3;;;;;;;13.73;39.98047;929.543;;;;
2021/10/30 08:29:32;;;;;;;3.7;1.4;;;;;;;13.54;39.38867;929.4803;;;;
2021/10/30 08:31:57;;;;;;;2.9;1.7;;;;;;;13.45;43.03516;929.4938;;;;
2021/10/30 08:34:23;;;;;;;5.5;1.4;;;;;;;13.35;42.26758;929.5326;;;;
2021/10/30 08:36:48;;;;;;;4.7;2;;;;;;;13.21;40.41504;929.481;;;;
2021/10/30 08:39:13;;;;;;;2.9;1.7;;;;;;;12.96;38.11816;929.5262;;;;
2021/10/30 08:41:38;;;;;;;1.9;1.1;;;;;;;13.15;37.66504;929.495;;;;
2021/10/30 08:44:03;;;;;;;6.2;1.4;;;;;;;13.38;38.13281;929.3467;;;;
2021/10/30 08:46:29;;;;;;;8;2.1;;;;;;;13.61;38.85449;929.46;;;;
2021/10/30 08:48:54;;;;;;;4.3;1.9;;;;;;;13.75;40.33789;929.3692;;;;
2021/10/30 08:51:20;;;;;;;7.4;2.6;;;;;;;13.9;37.1543;929.2444;;;;
2021/10/30 08:53:45;;;;;;;3.1;1.5;;;;;;;14.08;36.99707;929.3934;;;;
2021/10/30 08:56:12;;;;;;;4.8;1.3;;;;;;;14.16;36.89941;929.3984;;;;
2021/10/30 08:58:37;;;;;;;3.5;1.8;;;;;;;14.31;36.66016;929.3437;;;;
2021/10/30 09:01:03;;;;;;;2.3;1.3;;;;;;;14.48;38.26367;929.3331;;;;
2021/10/30 09:03:28;;;;;;;5.2;2.6;;;;;;;14.66;38.39453;929.2696;;;;
2021/10/30 09:05:54;;;;;;;3.2;1.7;;;;;;;14.88;37.64063;929.2749;;;;
2021/10/30 09:08:20;;;;;;;3.4;2;;;;;;;14.92;38.9248;929.3011;;;;
2021/10/30 09:10:44;;;;;;;2.2;1.1;;;;;;;15.1;38.49023;929.195;;;;
2021/10/30 09:13:10;;;;;;;9.2;1.9;;;;;;;15.3;35.98047;929.2371;;;;
2021/10/30 09:15:34;;;;;;;3.4;1.4;;;;;;;15.48;35.56738;929.2397;;;;
2021/10/30 09:18:01;;;;;;;3.4;1.4;;;;;;;15.61;36.39844;929.2039;;;;
2021/10/30 09:20:26;;;;;;;3.3;1.3;;;;;;;15.74;35.72852;929.0781;;;;
2021/10/30 09:22:51;;;;;;;4.2;1.7;;;;;;;15.87;34.02734;929.0969;;;;
2021/10/30 09:25:17;;;;;;;1.3;1.1;;;;;;;16.04;33.47461;929.0845;;;;
2021/10/30 09:27:42;;;;;;;2.7;0.8;;;;;;;16.31;29.12207;929.0167;;;;
2021/10/30 09:30:07;;;;;;;1.4;0.8;;;;;;;16.6;29.67383;928.9758;;;;
2021/10/30 09:32:32;;;;;;;3.3;1;;;;;;;16.93;28.49023;928.9992;;;;
2021/10/30 09:34:57;;;;;;;2;0.9;;;;;;;17.26;27.3291;928.8522;;;;
2021/10/30 09:37:24;;;;;;;2.6;0.7;;;;;;;17.46;26.24023;928.7321;;;;
2021/10/30 09:39:48;;;;;;;3.2;0.9;;;;;;;17.6;24.04395;928.6869;;;;
2021/10/30 09:42:14;;;;;;;4.4;1.1;;;;;;;18.13;22.44531;928.718;;;;
2021/10/30 09:44:39;;;;;;;1;0.6;;;;;;;18.59;21.24805;928.69;;;;
2021/10/30 09:47:06;;;;;;;3.3;1.1;;;;;;;18.63;25.32129;928.6705;;;;
2021/10/30 09:49:31;;;;;;;1.3;0.7;;;;;;;18.88;21.0293;928.705;;;;
2021/10/30 09:51:57;;;;;;;1.4;0.5;;;;;;;19.2;20.22949;928.6033;;;;
2021/10/30 09:54:22;;;;;;;2.2;0.7;;;;;;;19.4;19.94727;928.6038;;;;
2021/10/30 09:56:47;;;;;;;1.3;0.4;;;;;;;19.37;24.2334;928.5961;;;;
2021/10/30 09:59:12;;;;;;;1.5;0.5;;;;;;;19.32;23.1709;928.6392;;;;
2021/10/30 10:01:39;;;;;;;1.8;0.4;;;;;;;19.23;20.54492;928.5653;;;;
2021/10/30 10:04:04;;;;;;;0.9;0.5;;;;;;;19.33;22.36719;928.6116;;;;
2021/10/30 10:06:30;;;;;;;1;0.8;;;;;;;19.7;23.09766;928.6662;;;;
2021/10/30 10:08:56;;;;;;;2.1;0.7;;;;;;;19.78;23.56836;928.7081;;;;
2021/10/30 10:11:20;;;;;;;0.9;0.7;;;;;;;19.55;24.6748;928.6144;;;;
2021/10/30 10:13:46;;;;;;;2.5;0.6;;;;;;;19.22;24.7959;928.4945;;;;
2021/10/30 10:16:12;;;;;;;0.5;0.5;;;;;;;19.16;23.83789;928.5653;;;;
2021/10/30 10:18:37;;;;;;;0.7;0.5;;;;;;;19.54;22.48242;928.5714;;;;
2021/10/30 10:21:04;;;;;;;1.6;0.7;;;;;;;19.95;25.17578;928.6188;;;;
2021/10/30 10:23:29;;;;;;;0.8;0.8;;;;;;;20.14;25.23242;928.6214;;;;
2021/10/30 10:25:55;;;;;;;1;0.8;;;;;;;20.3;23.32715;928.6593;;;;
2021/10/30 10:28:20;;;;;;;1.3;0.8;;;;;;;20.53;23.22168;928.6566;;;;
2021/10/30 10:30:46;;;;;;;1.7;1;;;;;;;20.65;23.06543;928.5322;;;;
2021/10/30 10:33:12;;;;;;;0.9;0.7;;;;;;;20.67;22.21387;928.4855;;;;
2021/10/30 10:35:38;;;;;;;0.9;0.9;;;;;;;20.86;22.38574;928.4763;;;;
2021/10/30 10:38:03;;;;;;;1.6;0.7;;;;;;;20.85;20.84277;928.4216;;;;
2021/10/30 10:40:30;;;;;;;0.5;0.5;;;;;;;20.73;20.81348;928.4925;;;;
2021/10/30 10:42:55;;;;;;;0.9;0.7;;;;;;;20.88;21.12402;928.6074;;;;
2021/10/30 10:45:20;;;;;;;0.6;0.6;;;;;;;20.94;20.29688;928.5999;;;;
2021/10/30 10:47:49;;;;;;;0.7;0.7;;;;;;;20.61;22.13965;928.5622;;;;
2021/10/30 10:50:11;;;;;;;1.2;0.6;;;;;;;20.21;23.04199;928.3906;;;;
2021/10/30 10:52:36;;;;;;;1.5;0.8;;;;;;;20.53;21.12012;928.5745;;;;
2021/10/30 10:55:02;;;;;;;0.8;0.7;;;;;;;20.83;21.06348;928.5595;;;;
2021/10/30 10:57:27;;;;;;;2.7;0.9;;;;;;;21.04;20.75781;928.5728;;;;
2021/10/30 10:59:52;;;;;;;1.8;1.1;;;;;;;21.34;21.3457;928.5259;;;;
2021/10/30 11:02:19;;;;;;;1;0.9;;;;;;;21.01;20.75684;928.5399;;;;
2021/10/30 11:04:44;;;;;;;0.7;0.7;;;;;;;20.78;18.77051;928.4155;;;;
2021/10/30 11:07:10;;;;;;;0.6;0.6;;;;;;;20.1;21.57715;928.1401;;;;
2021/10/30 11:09:35;;;;;;;5.6;1.1;;;;;;;19.98;21.51367;928.2992;;;;
2021/10/30 11:12:00;;;;;;;2.7;0.7;;;;;;;19.95;21.8623;928.2131;;;;
2021/10/30 11:14:26;;;;;;;1.7;0.7;;;;;;;19.96;22.04883;928.1489;;;;
2021/10/30 11:16:53;;;;;;;0.6;0.6;;;;;;;19.77;20.85059;928.2252;;;;
2021/10/30 11:19:20;;;;;;;3.3;1;;;;;;;19.75;22.86719;928.2078;;;;
2021/10/30 11:21:42;;;;;;;3.4;0.9;;;;;;;19.78;23.14844;928.309;;;;
2021/10/30 11:24:08;;;;;;;0.6;0.6;;;;;;;19.77;22.96094;928.3184;;;;
2021/10/30 11:26:32;;;;;;;1;0.7;;;;;;;20.1;21.63574;928.2581;;;;
2021/10/30 11:28:57;;;;;;;0.8;0.6;;;;;;;20.53;22.48633;928.2445;;;;
2021/10/30 11:31:22;;;;;;;1.1;0.8;;;;;;;20.62;22.16406;928.2073;;;;
2021/10/30 11:33:48;;;;;;;2;1;;;;;;;20.85;21.70801;928.2599;;;;
2021/10/30 11:36:13;;;;;;;0.9;0.7;;;;;;;20.78;21.36523;928.3436;;;;
2021/10/30 11:38:39;;;;;;;0.9;0.6;;;;;;;20.9;20.84473;928.3541;;;;
2021/10/30 11:41:04;;;;;;;2.2;0.6;;;;;;;21.22;21.31641;928.3909;;;;
2021/10/30 11:43:36;;;;;;;0.8;0.8;;;;;;;21.33;20.33887;928.1814;;;;
2021/10/30 11:45:56;;;;;;;1.1;1;;;;;;;21.2;20.82422;928.2193;;;;
2021/10/30 11:48:22;;;;;;;1.3;0.8;;;;;;;20.92;19.99316;928.293;;;;
2021/10/30 11:50:47;;;;;;;1.7;0.8;;;;;;;20.96;20.14648;928.2483;;;;
2021/10/30 11:53:12;;;;;;;0.9;0.7;;;;;;;21.13;20.23535;928.2534;;;;
2021/10/30 11:55:38;;;;;;;4;0.8;;;;;;;21.43;19.6416;928.2124;;;;
2021/10/30 11:58:04;;;;;;;2.5;1.1;;;;;;;22.15;21.13867;928.2242;;;;
2021/10/30 12:00:29;;;;;;;3.4;1.2;;;;;;;23.76;18.56738;928.1883;;;;
2021/10/30 12:02:54;;;;;;;2.6;0.8;;;;;;;25.54;17.69629;928.1747;;;;
2021/10/30 12:05:20;;;;;;;1.1;0.7;;;;;;;26.23;17.30957;928.1088;;;;
2021/10/30 12:07:47;;;;;;;2.8;0.9;;;;;;;26.95;16.54395;927.9742;;;;
2021/10/30 12:10:11;;;;;;;1.7;0.8;;;;;;;26.69;17.62402;927.993;;;;
2021/10/30 12:12:35;;;;;;;0.8;0.6;;;;;;;25.35;17.67773;928.0594;;;;
2021/10/30 12:15:01;;;;;;;1.2;0.8;;;;;;;24.29;18.24805;928.2252;;;;
2021/10/30 12:17:26;;;;;;;1.7;0.8;;;;;;;24.6;19.38086;928.2458;;;;
2021/10/30 12:19:53;;;;;;;2.1;0.7;;;;;;;24.37;19.71289;928.2639;;;;
2021/10/30 12:22:18;;;;;;;1.6;0.9;;;;;;;23.41;20.41113;928.3435;;;;
2021/10/30 12:24:44;;;;;;;1.1;0.8;;;;;;;22.62;21.25488;928.3728;;;;
2021/10/30 12:27:09;;;;;;;0.9;0.9;;;;;;;22.29;21.22754;928.5195;;;;
2021/10/30 12:29:35;;;;;;;1.1;0.8;;;;;;;22.03;21.69531;928.6093;;;;
2021/10/30 12:32:00;;;;;;;2.1;1.1;;;;;;;21.74;21.85645;928.565;;;;
2021/10/30 12:34:25;;;;;;;1.2;0.9;;;;;;;21.57;23.44043;928.5492;;;;
2021/10/30 12:36:51;;;;;;;5.3;0.9;;;;;;;21.67;21.80664;928.6016;;;;
2021/10/30 12:39:16;;;;;;;7.2;1.4;;;;;;;21.6;23.16211;928.6465;;;;
2021/10/30 12:41:41;;;;;;;3.1;1.2;;;;;;;21.6;26.05371;928.5587;;;;
2021/10/30 12:44:06;;;;;;;2.7;1;;;;;;;21.45;23.15332;928.6451;;;;
2021/10/30 12:46:32;;;;;;;2.2;0.9;;;;;;;21.38;24.87012;928.7517;;;;
2021/10/30 12:48:57;;;;;;;7.7;1.7;;;;;;;21.12;24.22363;928.7114;;;;
2021/10/30 12:51:23;;;;;;;0.7;0.7;;;;;;;20.75;23.81836;928.7537;;;;
2021/10/30 12:53:51;;;;;;;2.8;1;;;;;;;20.69;23.53516;928.7749;;;;
2021/10/30 12:56:13;;;;;;;3.6;1;;;;;;;20.62;26.04297;928.6663;;;;
2021/10/30 12:58:38;;;;;;;1;0.7;;;;;;;20.41;23.8584;928.6337;;;;
2021/10/30 13:01:03;;;;;;;4.9;2.5;;;;;;;20.35;24.84766;928.8077;;;;
2021/10/30 13:03:29;;;;;;;2.2;1.4;;;;;;;20.29;26.81738;928.8344;;;;
2021/10/30 13:05:55;;;;;;;1.5;0.9;;;;;;;19.84;25.4248;928.7866;;;;
2021/10/30 13:08:19;;;;;;;0.6;0.6;;;;;;;19.78;21.88867;928.758;;;;
2021/10/30 13:10:45;;;;;;;0.9;0.7;;;;;;;19.96;23.22754;928.8125;;;;
2021/10/30 13:13:09;;;;;;;2.9;1.2;;;;;;;19.93;24.68359;928.8945;;;;
2021/10/30 13:15:35;;;;;;;2.2;0.9;;;;;;;20.03;25.32031;928.897;;;;
2021/10/30 13:18:00;;;;;;;1.8;1;;;;;;;19.9;24.9043;928.9189;;;;
2021/10/30 13:20:25;;;;;;;4.9;1.2;;;;;;;19.95;25.89844;928.9891;;;;
2021/10/30 13:22:51;;;;;;;3.2;1;;;;;;;19.82;27.31445;928.9769;;;;
2021/10/30 13:25:18;;;;;;;2;0.9;;;;;;;19.55;24.98926;929.0586;;;;
2021/10/30 13:27:43;;;;;;;1.6;1;;;;;;;19.25;26.37012;929.0278;;;;
2021/10/30 13:30:09;;;;;;;1.6;0.9;;;;;;;19.1;27.14063;929.1182;;;;
2021/10/30 13:32:34;;;;;;;3.7;1.3;;;;;;;19.25;25.97363;929.1369;;;;
2021/10/30 13:34:59;;;;;;;6.6;1.3;;;;;;;19.25;26.71973;929.2512;;;;
2021/10/30 13:37:24;;;;;;;1.8;1;;;;;;;19.12;26.47852;929.3571;;;;
2021/10/30 13:39:49;;;;;;;0.9;0.9;;;;;;;18.99;25.52832;929.4767;;;;
2021/10/30 13:42:14;;;;;;;2.2;1.1;;;;;;;18.99;27.21582;929.5463;;;;
2021/10/30 13:44:39;;;;;;;3.3;1.2;;;;;;;19.03;27.41602;929.5549;;;;
2021/10/30 13:47:05;;;;;;;1;0.7;;;;;;;18.91;26.19824;929.546;;;;
2021/10/30 13:49:30;;;;;;;1.8;1;;;;;;;18.88;26.70898;929.5433;;;;
2021/10/30 13:51:57;;;;;;;3.5;1.2;;;;;;;18.93;26.01367;929.7921;;;;
2021/10/30 13:54:22;;;;;;;2.1;0.9;;;;;;;19.04;26.76465;929.7336;;;;
2021/10/30 13:56:48;;;;;;;2.7;1.2;;;;;;;18.94;26.5498;929.7578;;;;
2021/10/30 13:59:13;;;;;;;1.8;1.3;;;;;;;18.92;27.33887;929.7603;;;;
2021/10/30 14:01:40;;;;;;;3.1;1.9;;;;;;;19.05;25.99707;929.7954;;;;
2021/10/30 14:04:05;;;;;;;3.9;2.2;;;;;;;18.96;28.73926;929.7886;;;;
2021/10/30 14:06:32;;;;;;;4.2;1.6;;;;;;;18.62;27.55371;929.8847;;;;
2021/10/30 14:08:56;;;;;;;3;1.5;;;;;;;18.64;27.55469;929.9515;;;;
2021/10/30 14:11:22;;;;;;;2.6;1.6;;;;;;;18.53;27.88574;929.9362;;;;
2021/10/30 14:13:47;;;;;;;1.5;1.3;;;;;;;18.31;28.2666;930.0834;;;;
2021/10/30 14:16:15;;;;;;;3.4;1.5;;;;;;;18.37;28.31738;930.1533;;;;
2021/10/30 14:18:41;;;;;;;1.6;1.3;;;;;;;18.45;27.36914;930.1187;;;;
2021/10/30 14:21:06;;;;;;;2.9;1.6;;;;;;;18.55;28.38672;930.1677;;;;
2021/10/30 14:23:31;;;;;;;3.4;1.5;;;;;;;18.48;28.21973;930.2191;;;;
2021/10/30 14:25:56;;;;;;;2.3;1.4;;;;;;;18.44;27.8916;930.1365;;;;
2021/10/30 14:28:21;;;;;;;1.7;1.2;;;;;;;18.34;28.62891;930.1767;;;;
2021/10/30 14:30:46;;;;;;;2.3;1.6;;;;;;;18.33;29.15137;930.2432;;;;
2021/10/30 14:33:11;;;;;;;2.7;1.3;;;;;;;18.36;29.25781;930.272;;;;
2021/10/30 14:35:36;;;;;;;3.5;1.4;;;;;;;18.1;28.83398;930.3237;;;;
2021/10/30 14:38:01;;;;;;;2.7;1.2;;;;;;;18.11;28.98535;930.4008;;;;
2021/10/30 14:40:27;;;;;;;2.1;1.1;;;;;;;17.86;30.32813;930.3109;;;;
2021/10/30 14:42:52;;;;;;;1.5;0.9;;;;;;;17.82;29.52344;930.3775;;;;
2021/10/30 14:45:24;;;;;;;1.5;1.1;;;;;;;18.01;29.83887;930.3674;;;;
2021/10/30 14:47:44;;;;;;;1.2;0.9;;;;;;;18.01;28.87402;930.39;;;;
2021/10/30 14:50:10;;;;;;;7;1.5;;;;;;;17.88;30.3877;930.4529;;;;
2021/10/30 14:52:35;;;;;;;2.1;1;;;;;;;17.84;29.07324;930.4106;;;;
2021/10/30 14:55:01;;;;;;;2.4;1.3;;;;;;;17.66;30.36035;930.4422;;;;
2021/10/30 14:57:26;;;;;;;3.5;1.3;;;;;;;17.68;31.15039;930.5837;;;;
2021/10/30 14:59:52;;;;;;;2.8;1.5;;;;;;;17.76;31.65527;930.6119;;;;
2021/10/30 15:02:17;;;;;;;2.1;1;;;;;;;17.84;30.46582;930.5918;;;;
2021/10/30 15:04:43;;;;;;;2.6;1.7;;;;;;;17.75;32.43262;930.6669;;;;
2021/10/30 15:07:08;;;;;;;4.2;1.5;;;;;;;17.78;32.15625;930.8689;;;;
2021/10/30 15:09:35;;;;;;;1.7;1.3;;;;;;;17.7;31.83691;930.7087;;;;
2021/10/30 15:12:00;;;;;;;3.2;1.4;;;;;;;17.67;32.55469;930.8292;;;;
2021/10/30 15:14:25;;;;;;;3.6;1.8;;;;;;;17.51;33.33203;930.8198;;;;
2021/10/30 15:16:50;;;;;;;6.1;1.8;;;;;;;17.56;32.43066;930.8354;;;;
2021/10/30 15:19:16;;;;;;;2.9;1.8;;;;;;;17.74;33.80176;930.9384;;;;
2021/10/30 15:21:41;;;;;;;1.4;1.2;;;;;;;17.83;34.0166;930.8508;;;;
2021/10/30 15:24:06;;;;;;;2.9;1.2;;;;;;;17.75;34.60449;930.8575;;;;
2021/10/30 15:26:32;;;;;;;3.3;1.6;;;;;;;17.91;35.13867;930.8669;;;;
2021/10/30 15:28:58;;;;;;;2.6;1.5;;;;;;;17.92;34.97656;930.9849;;;;
2021/10/30 15:31:24;;;;;;;2.6;1.3;;;;;;;17.74;36.1582;930.8644;;;;
2021/10/30 15:33:49;;;;;;;3;1.2;;;;;;;17.49;38.86328;930.8511;;;;